sensor_id;sensor_type;location;lat;lon;timestamp;temperature;humidity
11965;DHT22;6042;41.326;19.826;2022-12-22T00:00:19;8.00;99.90
11965;DHT22;6042;41.326;19.826;2022-12-22T00:03:12;8.10;99.90
11965;DHT22;6042;41.326;19.826;2022-12-22T00:05:59;8.00;99.90
11965;DHT22;6042;41.326;19.826;2022-12-22T00:08:45;8.10;99.90
11965;DHT22;6042;41.326;19.826;2022-12-22T00:11:33;8.10;99.90
11965;DHT22;6042;41.326;19.826;2022-12-22T00:14:19;8.10;99.90
11965;DHT22;6042;41.326;19.826;2022-12-22T00:17:14;8.00;99.90
11965;DHT22;6042;41.326;19.826;2022-12-22T00:20:10;8.00;99.90
11965;DHT22;6042;41.326;19.826;2022-12-22T00:22:57;8.10;99.90
11965;DHT22;6042;41.326;19.826;2022-12-22T00:25:43;8.10;99.90
11965;DHT22;6042;41.326;19.826;2022-12-22T00:28:30;8.00;99.90
11965;DHT22;6042;41.326;19.826;2022-12-22T00:31:17;8.00;99.90
11965;DHT22;6042;41.326;19.826;2022-12-22T00:34:07;8.00;99.90
11965;DHT22;6042;41.326;19.826;2022-12-22T00:37:00;7.90;99.90
11965;DHT22;6042;41.326;19.826;2022-12-22T00:39:46;7.80;99.90
11965;DHT22;6042;41.326;19.826;2022-12-22T00:42:33;7.80;99.90
11965;DHT22;6042;41.326;19.826;2022-12-22T00:45:20;7.70;99.90
11965;DHT22;6042;41.326;19.826;2022-12-22T00:48:10;7.80;99.90
11965;DHT22;6042;41.326;19.826;2022-12-22T00:51:05;7.80;99.90
11965;DHT22;6042;41.326;19.826;2022-12-22T00:53:53;7.80;99.90
11965;DHT22;6042;41.326;19.826;2022-12-22T00:56:40;7.70;99.90
11965;DHT22;6042;41.326;19.826;2022-12-22T00:59:27;7.70;99.90
11965;DHT22;6042;41.326;19.826;2022-12-22T01:02:14;7.70;99.90
11965;DHT22;6042;41.326;19.826;2022-12-22T01:05:01;7.70;99.90
11965;DHT22;6042;41.326;19.826;2022-12-22T01:07:47;7.70;99.90
11965;DHT22;6042;41.326;19.826;2022-12-22T01:10:35;7.70;99.90
11965;DHT22;6042;41.326;19.826;2022-12-22T01:13:22;7.60;99.90
11965;DHT22;6042;41.326;19.826;2022-12-22T01:16:09;7.60;99.90
11965;DHT22;6042;41.326;19.826;2022-12-22T01:18:56;7.60;99.90
11965;DHT22;6042;41.326;19.826;2022-12-22T01:21:42;7.60;99.90
11965;DHT22;6042;41.326;19.826;2022-12-22T01:24:28;7.50;99.90
11965;DHT22;6042;41.326;19.826;2022-12-22T01:27:16;7.60;99.90
11965;DHT22;6042;41.326;19.826;2022-12-22T01:30:02;7.60;99.90
11965;DHT22;6042;41.326;19.826;2022-12-22T01:32:48;7.60;99.90
11965;DHT22;6042;41.326;19.826;2022-12-22T01:35:35;7.50;99.90
11965;DHT22;6042;41.326;19.826;2022-12-22T01:38:21;7.50;99.90
11965;DHT22;6042;41.326;19.826;2022-12-22T01:41:11;7.50;99.90
11965;DHT22;6042;41.326;19.826;2022-12-22T01:43:59;7.50;99.90
11965;DHT22;6042;41.326;19.826;2022-12-22T01:46:46;7.50;99.90
11965;DHT22;6042;41.326;19.826;2022-12-22T01:49:34;7.50;99.90
11965;DHT22;6042;41.326;19.826;2022-12-22T01:52:23;7.50;99.90
11965;DHT22;6042;41.326;19.826;2022-12-22T01:55:13;7.60;99.90
11965;DHT22;6042;41.326;19.826;2022-12-22T01:58:00;7.50;99.90
11965;DHT22;6042;41.326;19.826;2022-12-22T02:00:47;7.50;99.90
11965;DHT22;6042;41.326;19.826;2022-12-22T02:03:34;7.40;99.90
11965;DHT22;6042;41.326;19.826;2022-12-22T02:06:25;7.40;99.90
11965;DHT22;6042;41.326;19.826;2022-12-22T02:09:26;7.50;99.90
11965;DHT22;6042;41.326;19.826;2022-12-22T02:12:20;7.60;99.90
11965;DHT22;6042;41.326;19.826;2022-12-22T02:15:17;7.50;99.90
11965;DHT22;6042;41.326;19.826;2022-12-22T02:18:10;7.60;99.90
11965;DHT22;6042;41.326;19.826;2022-12-22T02:21:00;7.50;99.90
11965;DHT22;6042;41.326;19.826;2022-12-22T02:23:57;7.50;99.90
11965;DHT22;6042;41.326;19.826;2022-12-22T02:26:53;7.50;99.90
11965;DHT22;6042;41.326;19.826;2022-12-22T02:29:42;7.50;99.90
11965;DHT22;6042;41.326;19.826;2022-12-22T02:32:34;7.50;99.90
11965;DHT22;6042;41.326;19.826;2022-12-22T02:35:21;7.60;99.90
11965;DHT22;6042;41.326;19.826;2022-12-22T02:38:14;7.60;99.90
11965;DHT22;6042;41.326;19.826;2022-12-22T02:41:12;7.60;99.90
11965;DHT22;6042;41.326;19.826;2022-12-22T02:44:14;7.60;99.90
11965;DHT22;6042;41.326;19.826;2022-12-22T02:47:07;7.60;99.90
11965;DHT22;6042;41.326;19.826;2022-12-22T02:49:59;7.60;99.90
11965;DHT22;6042;41.326;19.826;2022-12-22T02:52:47;7.60;99.90
11965;DHT22;6042;41.326;19.826;2022-12-22T02:55:35;7.60;99.90
11965;DHT22;6042;41.326;19.826;2022-12-22T02:58:21;7.70;99.90
11965;DHT22;6042;41.326;19.826;2022-12-22T03:01:10;7.70;99.90
11965;DHT22;6042;41.326;19.826;2022-12-22T03:03:56;7.70;99.90
11965;DHT22;6042;41.326;19.826;2022-12-22T03:06:42;7.60;99.90
11965;DHT22;6042;41.326;19.826;2022-12-22T03:09:28;7.70;99.90
11965;DHT22;6042;41.326;19.826;2022-12-22T03:12:15;7.70;99.90
11965;DHT22;6042;41.326;19.826;2022-12-22T03:15:01;7.80;99.90
11965;DHT22;6042;41.326;19.826;2022-12-22T03:17:49;7.70;99.90
11965;DHT22;6042;41.326;19.826;2022-12-22T03:20:35;7.70;99.90
11965;DHT22;6042;41.326;19.826;2022-12-22T03:23:21;7.70;99.90
11965;DHT22;6042;41.326;19.826;2022-12-22T03:26:08;7.70;99.90
11965;DHT22;6042;41.326;19.826;2022-12-22T03:28:36;7.70;99.90
11965;DHT22;6042;41.326;19.826;2022-12-22T03:31:07;7.70;99.90
11965;DHT22;6042;41.326;19.826;2022-12-22T03:33:37;7.60;99.90
11965;DHT22;6042;41.326;19.826;2022-12-22T03:36:07;7.70;99.90
11965;DHT22;6042;41.326;19.826;2022-12-22T03:38:36;7.70;99.90
11965;DHT22;6042;41.326;19.826;2022-12-22T03:41:05;7.70;99.90
11965;DHT22;6042;41.326;19.826;2022-12-22T03:43:33;7.60;99.90
11965;DHT22;6042;41.326;19.826;2022-12-22T03:46:22;7.70;99.90
11965;DHT22;6042;41.326;19.826;2022-12-22T03:49:03;7.70;99.90
11965;DHT22;6042;41.326;19.826;2022-12-22T03:51:41;7.70;99.90
11965;DHT22;6042;41.326;19.826;2022-12-22T03:54:11;7.60;99.90
11965;DHT22;6042;41.326;19.826;2022-12-22T03:56:40;7.60;99.90
11965;DHT22;6042;41.326;19.826;2022-12-22T03:59:09;7.60;99.90
11965;DHT22;6042;41.326;19.826;2022-12-22T04:01:39;7.60;99.90
11965;DHT22;6042;41.326;19.826;2022-12-22T04:04:12;7.60;99.90
11965;DHT22;6042;41.326;19.826;2022-12-22T04:06:41;7.60;99.90
11965;DHT22;6042;41.326;19.826;2022-12-22T04:09:10;7.50;99.90
11965;DHT22;6042;41.326;19.826;2022-12-22T04:11:39;7.60;99.90
11965;DHT22;6042;41.326;19.826;2022-12-22T04:14:25;7.60;99.90
11965;DHT22;6042;41.326;19.826;2022-12-22T04:17:01;7.50;99.90
11965;DHT22;6042;41.326;19.826;2022-12-22T04:19:31;7.50;99.90
11965;DHT22;6042;41.326;19.826;2022-12-22T04:22:00;7.50;99.90
11965;DHT22;6042;41.326;19.826;2022-12-22T04:24:28;7.50;99.90
11965;DHT22;6042;41.326;19.826;2022-12-22T04:26:57;7.50;99.90
11965;DHT22;6042;41.326;19.826;2022-12-22T04:29:26;7.50;99.90
11965;DHT22;6042;41.326;19.826;2022-12-22T04:31:54;7.50;99.90
11965;DHT22;6042;41.326;19.826;2022-12-22T04:34:23;7.50;99.90
11965;DHT22;6042;41.326;19.826;2022-12-22T04:36:53;7.50;99.90
11965;DHT22;6042;41.326;19.826;2022-12-22T04:39:34;7.50;99.90
11965;DHT22;6042;41.326;19.826;2022-12-22T04:42:02;7.40;99.90
11965;DHT22;6042;41.326;19.826;2022-12-22T04:44:31;7.40;99.90
11965;DHT22;6042;41.326;19.826;2022-12-22T04:46:59;7.40;99.90
11965;DHT22;6042;41.326;19.826;2022-12-22T04:49:28;7.40;99.90
11965;DHT22;6042;41.326;19.826;2022-12-22T04:51:58;7.40;99.90
11965;DHT22;6042;41.326;19.826;2022-12-22T04:54:27;7.30;99.90
11965;DHT22;6042;41.326;19.826;2022-12-22T04:57:02;7.30;99.90
11965;DHT22;6042;41.326;19.826;2022-12-22T04:59:31;7.30;99.90
11965;DHT22;6042;41.326;19.826;2022-12-22T05:02:00;7.20;99.90
11965;DHT22;6042;41.326;19.826;2022-12-22T05:04:29;7.30;99.90
11965;DHT22;6042;41.326;19.826;2022-12-22T05:07:00;7.20;99.90
11965;DHT22;6042;41.326;19.826;2022-12-22T05:09:28;7.30;99.90
11965;DHT22;6042;41.326;19.826;2022-12-22T05:11:57;7.30;99.90
11965;DHT22;6042;41.326;19.826;2022-12-22T05:14:25;7.30;99.90
11965;DHT22;6042;41.326;19.826;2022-12-22T05:16:54;7.20;99.90
11965;DHT22;6042;41.326;19.826;2022-12-22T05:19:23;7.20;99.90
11965;DHT22;6042;41.326;19.826;2022-12-22T05:21:57;7.20;99.90
11965;DHT22;6042;41.326;19.826;2022-12-22T05:24:27;7.20;99.90
11965;DHT22;6042;41.326;19.826;2022-12-22T05:26:55;7.30;99.90
11965;DHT22;6042;41.326;19.826;2022-12-22T05:29:24;7.30;99.90
11965;DHT22;6042;41.326;19.826;2022-12-22T05:31:53;7.30;99.90
11965;DHT22;6042;41.326;19.826;2022-12-22T05:34:21;7.30;99.90
11965;DHT22;6042;41.326;19.826;2022-12-22T05:36:50;7.30;99.90
11965;DHT22;6042;41.326;19.826;2022-12-22T05:39:19;7.30;99.90
11965;DHT22;6042;41.326;19.826;2022-12-22T05:41:49;7.40;99.90
11965;DHT22;6042;41.326;19.826;2022-12-22T05:44:17;7.40;99.90
11965;DHT22;6042;41.326;19.826;2022-12-22T05:46:48;7.30;99.90
11965;DHT22;6042;41.326;19.826;2022-12-22T05:49:17;7.40;99.90
11965;DHT22;6042;41.326;19.826;2022-12-22T05:51:46;7.40;99.90
11965;DHT22;6042;41.326;19.826;2022-12-22T05:54:16;7.40;99.90
11965;DHT22;6042;41.326;19.826;2022-12-22T05:56:44;7.40;99.90
11965;DHT22;6042;41.326;19.826;2022-12-22T05:59:14;7.40;99.90
11965;DHT22;6042;41.326;19.826;2022-12-22T06:01:43;7.40;99.90
11965;DHT22;6042;41.326;19.826;2022-12-22T06:04:12;7.30;99.90
11965;DHT22;6042;41.326;19.826;2022-12-22T06:06:40;7.30;99.90
11965;DHT22;6042;41.326;19.826;2022-12-22T06:09:09;7.30;99.90
11965;DHT22;6042;41.326;19.826;2022-12-22T06:11:38;7.20;99.90
11965;DHT22;6042;41.326;19.826;2022-12-22T06:14:06;7.10;99.90
11965;DHT22;6042;41.326;19.826;2022-12-22T06:16:36;7.10;99.90
11965;DHT22;6042;41.326;19.826;2022-12-22T06:19:05;7.00;99.90
11965;DHT22;6042;41.326;19.826;2022-12-22T06:21:34;7.10;99.90
11965;DHT22;6042;41.326;19.826;2022-12-22T06:24:02;7.10;99.90
11965;DHT22;6042;41.326;19.826;2022-12-22T06:26:32;7.10;99.90
11965;DHT22;6042;41.326;19.826;2022-12-22T06:29:00;7.10;99.90
11965;DHT22;6042;41.326;19.826;2022-12-22T06:31:29;7.10;99.90
11965;DHT22;6042;41.326;19.826;2022-12-22T06:33:59;7.10;99.90
11965;DHT22;6042;41.326;19.826;2022-12-22T06:36:29;7.20;99.90
11965;DHT22;6042;41.326;19.826;2022-12-22T06:38:57;7.20;99.90
11965;DHT22;6042;41.326;19.826;2022-12-22T06:41:26;7.20;99.90
11965;DHT22;6042;41.326;19.826;2022-12-22T06:44:12;7.20;99.90
11965;DHT22;6042;41.326;19.826;2022-12-22T06:46:41;7.30;99.90
11965;DHT22;6042;41.326;19.826;2022-12-22T06:49:11;7.40;99.90
11965;DHT22;6042;41.326;19.826;2022-12-22T06:51:39;7.40;99.90
11965;DHT22;6042;41.326;19.826;2022-12-22T06:54:08;7.40;99.90
11965;DHT22;6042;41.326;19.826;2022-12-22T06:56:36;7.50;99.90
11965;DHT22;6042;41.326;19.826;2022-12-22T06:59:05;7.40;99.90
11965;DHT22;6042;41.326;19.826;2022-12-22T07:01:34;7.50;99.90
11965;DHT22;6042;41.326;19.826;2022-12-22T07:04:03;7.60;99.90
11965;DHT22;6042;41.326;19.826;2022-12-22T07:06:33;7.70;99.90
11965;DHT22;6042;41.326;19.826;2022-12-22T07:09:03;7.70;99.90
11965;DHT22;6042;41.326;19.826;2022-12-22T07:11:32;7.80;99.90
11965;DHT22;6042;41.326;19.826;2022-12-22T07:14:00;7.80;99.90
11965;DHT22;6042;41.326;19.826;2022-12-22T07:16:29;7.90;99.90
11965;DHT22;6042;41.326;19.826;2022-12-22T07:18:58;7.90;99.90
11965;DHT22;6042;41.326;19.826;2022-12-22T07:21:26;7.90;99.90
11965;DHT22;6042;41.326;19.826;2022-12-22T07:23:56;8.00;99.90
11965;DHT22;6042;41.326;19.826;2022-12-22T07:26:25;8.10;99.90
11965;DHT22;6042;41.326;19.826;2022-12-22T07:28:53;8.30;99.90
11965;DHT22;6042;41.326;19.826;2022-12-22T07:31:22;8.50;99.90
11965;DHT22;6042;41.326;19.826;2022-12-22T07:33:51;8.60;99.90
11965;DHT22;6042;41.326;19.826;2022-12-22T07:36:20;8.70;99.90
11965;DHT22;6042;41.326;19.826;2022-12-22T07:38:50;8.80;99.90
11965;DHT22;6042;41.326;19.826;2022-12-22T07:41:20;8.80;99.90
11965;DHT22;6042;41.326;19.826;2022-12-22T07:44:07;8.90;99.90
11965;DHT22;6042;41.326;19.826;2022-12-22T07:46:37;8.90;99.90
11965;DHT22;6042;41.326;19.826;2022-12-22T07:49:07;9.00;99.90
11965;DHT22;6042;41.326;19.826;2022-12-22T07:51:55;9.00;99.90
11965;DHT22;6042;41.326;19.826;2022-12-22T07:54:25;9.20;99.90
11965;DHT22;6042;41.326;19.826;2022-12-22T07:56:55;9.30;99.90
11965;DHT22;6042;41.326;19.826;2022-12-22T07:59:24;9.40;99.90
11965;DHT22;6042;41.326;19.826;2022-12-22T08:01:53;9.40;99.90
11965;DHT22;6042;41.326;19.826;2022-12-22T08:04:21;9.60;99.90
11965;DHT22;6042;41.326;19.826;2022-12-22T08:06:50;9.70;99.90
11965;DHT22;6042;41.326;19.826;2022-12-22T08:09:19;9.80;99.90
11965;DHT22;6042;41.326;19.826;2022-12-22T08:11:49;9.90;99.90
11965;DHT22;6042;41.326;19.826;2022-12-22T08:14:19;10.10;99.90
11965;DHT22;6042;41.326;19.826;2022-12-22T08:16:47;10.10;99.90
11965;DHT22;6042;41.326;19.826;2022-12-22T08:19:16;10.20;99.90
11965;DHT22;6042;41.326;19.826;2022-12-22T08:21:45;10.30;99.90
11965;DHT22;6042;41.326;19.826;2022-12-22T08:24:19;10.30;99.90
11965;DHT22;6042;41.326;19.826;2022-12-22T08:26:51;10.50;99.90
11965;DHT22;6042;41.326;19.826;2022-12-22T08:29:26;10.60;99.90
11965;DHT22;6042;41.326;19.826;2022-12-22T08:31:56;10.70;99.90
11965;DHT22;6042;41.326;19.826;2022-12-22T08:34:26;10.80;99.90
11965;DHT22;6042;41.326;19.826;2022-12-22T08:36:57;10.80;99.90
11965;DHT22;6042;41.326;19.826;2022-12-22T08:39:27;11.00;99.90
11965;DHT22;6042;41.326;19.826;2022-12-22T08:41:59;11.20;99.90
11965;DHT22;6042;41.326;19.826;2022-12-22T08:44:30;11.40;99.90
11965;DHT22;6042;41.326;19.826;2022-12-22T08:46:59;11.60;99.90
11965;DHT22;6042;41.326;19.826;2022-12-22T08:49:27;11.60;99.90
11965;DHT22;6042;41.326;19.826;2022-12-22T08:51:56;11.70;99.90
11965;DHT22;6042;41.326;19.826;2022-12-22T08:54:25;11.80;99.90
11965;DHT22;6042;41.326;19.826;2022-12-22T08:56:53;11.90;99.90
11965;DHT22;6042;41.326;19.826;2022-12-22T08:59:22;12.10;99.90
11965;DHT22;6042;41.326;19.826;2022-12-22T09:01:52;12.10;99.90
11965;DHT22;6042;41.326;19.826;2022-12-22T09:04:21;12.20;99.90
11965;DHT22;6042;41.326;19.826;2022-12-22T09:06:51;12.20;99.90
11965;DHT22;6042;41.326;19.826;2022-12-22T09:09:20;12.30;99.90
11965;DHT22;6042;41.326;19.826;2022-12-22T09:11:49;12.40;99.90
11965;DHT22;6042;41.326;19.826;2022-12-22T09:14:17;12.50;99.90
11965;DHT22;6042;41.326;19.826;2022-12-22T09:16:46;12.50;99.90
11965;DHT22;6042;41.326;19.826;2022-12-22T09:19:18;12.50;99.90
11965;DHT22;6042;41.326;19.826;2022-12-22T09:21:46;12.70;99.90
11965;DHT22;6042;41.326;19.826;2022-12-22T09:24:15;12.60;99.90
11965;DHT22;6042;41.326;19.826;2022-12-22T09:26:44;12.60;99.90
11965;DHT22;6042;41.326;19.826;2022-12-22T09:29:13;12.70;99.90
11965;DHT22;6042;41.326;19.826;2022-12-22T09:31:43;12.70;99.90
11965;DHT22;6042;41.326;19.826;2022-12-22T09:34:11;12.80;99.90
11965;DHT22;6042;41.326;19.826;2022-12-22T09:36:46;12.50;99.90
11965;DHT22;6042;41.326;19.826;2022-12-22T09:39:15;12.70;99.90
11965;DHT22;6042;41.326;19.826;2022-12-22T09:41:52;12.70;99.90
11965;DHT22;6042;41.326;19.826;2022-12-22T09:44:24;12.90;99.90
11965;DHT22;6042;41.326;19.826;2022-12-22T09:46:54;12.80;99.90
11965;DHT22;6042;41.326;19.826;2022-12-22T09:49:25;12.90;99.90
11965;DHT22;6042;41.326;19.826;2022-12-22T09:52:01;13.00;99.90
11965;DHT22;6042;41.326;19.826;2022-12-22T09:54:31;13.20;99.90
11965;DHT22;6042;41.326;19.826;2022-12-22T09:57:00;13.20;99.90
11965;DHT22;6042;41.326;19.826;2022-12-22T09:59:29;13.30;99.90
11965;DHT22;6042;41.326;19.826;2022-12-22T10:02:04;13.20;99.90
11965;DHT22;6042;41.326;19.826;2022-12-22T10:04:55;13.10;99.90
11965;DHT22;6042;41.326;19.826;2022-12-22T10:07:30;12.90;99.90
11965;DHT22;6042;41.326;19.826;2022-12-22T10:10:05;12.80;99.90
11965;DHT22;6042;41.326;19.826;2022-12-22T10:12:34;12.80;99.90
11965;DHT22;6042;41.326;19.826;2022-12-22T10:15:03;12.90;99.90
11965;DHT22;6042;41.326;19.826;2022-12-22T10:17:33;12.90;99.90
11965;DHT22;6042;41.326;19.826;2022-12-22T10:20:19;13.00;99.90
11965;DHT22;6042;41.326;19.826;2022-12-22T10:22:54;13.00;99.90
11965;DHT22;6042;41.326;19.826;2022-12-22T10:25:31;13.00;99.90
11965;DHT22;6042;41.326;19.826;2022-12-22T10:28:23;12.90;99.90
11965;DHT22;6042;41.326;19.826;2022-12-22T10:31:16;13.00;99.90
11965;DHT22;6042;41.326;19.826;2022-12-22T10:33:47;13.00;99.90
11965;DHT22;6042;41.326;19.826;2022-12-22T10:36:21;13.00;99.90
11965;DHT22;6042;41.326;19.826;2022-12-22T10:38:56;12.90;99.90
11965;DHT22;6042;41.326;19.826;2022-12-22T10:41:28;12.80;99.90
11965;DHT22;6042;41.326;19.826;2022-12-22T10:43:59;12.90;99.90
11965;DHT22;6042;41.326;19.826;2022-12-22T10:46:33;12.70;99.90
11965;DHT22;6042;41.326;19.826;2022-12-22T10:49:12;12.70;99.90
11965;DHT22;6042;41.326;19.826;2022-12-22T10:51:49;12.80;99.90
11965;DHT22;6042;41.326;19.826;2022-12-22T10:54:29;12.90;99.90
11965;DHT22;6042;41.326;19.826;2022-12-22T10:57:03;12.90;99.90
11965;DHT22;6042;41.326;19.826;2022-12-22T10:59:32;13.00;99.90
11965;DHT22;6042;41.326;19.826;2022-12-22T11:02:25;13.10;99.90
11965;DHT22;6042;41.326;19.826;2022-12-22T11:05:01;13.20;99.90
11965;DHT22;6042;41.326;19.826;2022-12-22T11:07:33;13.30;99.90
11965;DHT22;6042;41.326;19.826;2022-12-22T11:10:15;13.50;99.90
11965;DHT22;6042;41.326;19.826;2022-12-22T11:13:01;13.70;99.90
11965;DHT22;6042;41.326;19.826;2022-12-22T11:15:40;14.00;99.90
11965;DHT22;6042;41.326;19.826;2022-12-22T11:18:32;14.00;99.90
11965;DHT22;6042;41.326;19.826;2022-12-22T11:21:09;14.10;99.90
11965;DHT22;6042;41.326;19.826;2022-12-22T11:23:55;14.10;99.90
11965;DHT22;6042;41.326;19.826;2022-12-22T11:26:35;13.90;99.90
11965;DHT22;6042;41.326;19.826;2022-12-22T11:29:21;13.80;99.90
11965;DHT22;6042;41.326;19.826;2022-12-22T11:32:09;13.90;99.90
11965;DHT22;6042;41.326;19.826;2022-12-22T11:34:52;14.00;99.90
11965;DHT22;6042;41.326;19.826;2022-12-22T11:37:33;13.90;99.90
11965;DHT22;6042;41.326;19.826;2022-12-22T11:40:13;13.60;99.90
11965;DHT22;6042;41.326;19.826;2022-12-22T11:42:55;13.70;99.90
11965;DHT22;6042;41.326;19.826;2022-12-22T11:45:38;13.80;99.90
11965;DHT22;6042;41.326;19.826;2022-12-22T11:48:31;14.00;99.90
11965;DHT22;6042;41.326;19.826;2022-12-22T11:51:06;14.20;99.90
11965;DHT22;6042;41.326;19.826;2022-12-22T11:56:46;14.60;99.90
11965;DHT22;6042;41.326;19.826;2022-12-22T11:59:32;14.80;99.90
11965;DHT22;6042;41.326;19.826;2022-12-22T12:05:14;14.80;99.90
11965;DHT22;6042;41.326;19.826;2022-12-22T12:07:49;14.80;99.90
11965;DHT22;6042;41.326;19.826;2022-12-22T12:10:23;14.80;99.90
11965;DHT22;6042;41.326;19.826;2022-12-22T12:12:58;15.10;99.90
11965;DHT22;6042;41.326;19.826;2022-12-22T12:15:33;15.10;99.90
11965;DHT22;6042;41.326;19.826;2022-12-22T12:18:29;15.20;99.90
11965;DHT22;6042;41.326;19.826;2022-12-22T12:21:19;15.00;99.90
11965;DHT22;6042;41.326;19.826;2022-12-22T12:24:02;15.00;99.90
11965;DHT22;6042;41.326;19.826;2022-12-22T12:26:39;14.80;99.90
11965;DHT22;6042;41.326;19.826;2022-12-22T12:29:16;14.80;99.90
11965;DHT22;6042;41.326;19.826;2022-12-22T12:31:54;15.00;99.90
11965;DHT22;6042;41.326;19.826;2022-12-22T12:34:25;15.20;99.90
11965;DHT22;6042;41.326;19.826;2022-12-22T12:37:00;15.20;99.90
11965;DHT22;6042;41.326;19.826;2022-12-22T12:39:34;15.10;99.90
11965;DHT22;6042;41.326;19.826;2022-12-22T12:42:16;15.00;99.90
11965;DHT22;6042;41.326;19.826;2022-12-22T12:44:51;15.00;99.90
11965;DHT22;6042;41.326;19.826;2022-12-22T12:47:24;15.30;99.90
11965;DHT22;6042;41.326;19.826;2022-12-22T12:50:00;15.70;99.90
11965;DHT22;6042;41.326;19.826;2022-12-22T12:56:01;15.60;99.90
11965;DHT22;6042;41.326;19.826;2022-12-22T12:58:52;15.50;99.90
11965;DHT22;6042;41.326;19.826;2022-12-22T13:08:10;14.70;99.90
11965;DHT22;6042;41.326;19.826;2022-12-22T13:10:49;14.70;99.90
11965;DHT22;6042;41.326;19.826;2022-12-22T13:13:58;14.60;99.90
11965;DHT22;6042;41.326;19.826;2022-12-22T13:16:37;14.50;99.90
11965;DHT22;6042;41.326;19.826;2022-12-22T13:19:19;14.40;99.90
11965;DHT22;6042;41.326;19.826;2022-12-22T13:21:52;14.40;99.90
11965;DHT22;6042;41.326;19.826;2022-12-22T13:24:29;14.30;99.90
11965;DHT22;6042;41.326;19.826;2022-12-22T13:27:04;14.30;99.90
11965;DHT22;6042;41.326;19.826;2022-12-22T13:29:41;14.20;99.90
11965;DHT22;6042;41.326;19.826;2022-12-22T13:32:28;14.10;99.90
11965;DHT22;6042;41.326;19.826;2022-12-22T13:35:04;14.00;99.90
11965;DHT22;6042;41.326;19.826;2022-12-22T13:37:54;14.10;99.90
11965;DHT22;6042;41.326;19.826;2022-12-22T13:40:26;14.00;99.90
11965;DHT22;6042;41.326;19.826;2022-12-22T13:43:01;14.00;99.90
11965;DHT22;6042;41.326;19.826;2022-12-22T13:45:39;13.90;99.90
11965;DHT22;6042;41.326;19.826;2022-12-22T13:48:13;13.80;99.90
11965;DHT22;6042;41.326;19.826;2022-12-22T13:50:46;13.80;99.90
11965;DHT22;6042;41.326;19.826;2022-12-22T13:53:21;13.80;99.90
11965;DHT22;6042;41.326;19.826;2022-12-22T13:56:15;13.70;99.90
11965;DHT22;6042;41.326;19.826;2022-12-22T13:58:46;13.70;99.90
11965;DHT22;6042;41.326;19.826;2022-12-22T14:01:19;13.70;99.90
11965;DHT22;6042;41.326;19.826;2022-12-22T14:03:49;13.70;99.90
11965;DHT22;6042;41.326;19.826;2022-12-22T14:06:30;13.80;99.90
11965;DHT22;6042;41.326;19.826;2022-12-22T14:09:14;13.80;99.90
11965;DHT22;6042;41.326;19.826;2022-12-22T14:11:48;13.80;99.90
11965;DHT22;6042;41.326;19.826;2022-12-22T14:14:22;13.80;99.90
11965;DHT22;6042;41.326;19.826;2022-12-22T14:16:53;13.80;99.90
11965;DHT22;6042;41.326;19.826;2022-12-22T14:19:23;13.80;99.90
11965;DHT22;6042;41.326;19.826;2022-12-22T14:22:02;13.70;99.90
11965;DHT22;6042;41.326;19.826;2022-12-22T14:24:34;13.60;99.90
11965;DHT22;6042;41.326;19.826;2022-12-22T14:27:14;13.50;99.90
11965;DHT22;6042;41.326;19.826;2022-12-22T14:29:45;13.50;99.90
11965;DHT22;6042;41.326;19.826;2022-12-22T14:32:32;13.30;99.90
11965;DHT22;6042;41.326;19.826;2022-12-22T14:35:02;13.30;99.90
11965;DHT22;6042;41.326;19.826;2022-12-22T14:37:31;13.30;99.90
11965;DHT22;6042;41.326;19.826;2022-12-22T14:40:00;13.40;99.90
11965;DHT22;6042;41.326;19.826;2022-12-22T14:42:30;13.30;99.90
11965;DHT22;6042;41.326;19.826;2022-12-22T14:45:00;13.40;99.90
11965;DHT22;6042;41.326;19.826;2022-12-22T14:47:29;13.40;99.90
11965;DHT22;6042;41.326;19.826;2022-12-22T14:50:00;13.30;99.90
11965;DHT22;6042;41.326;19.826;2022-12-22T14:52:35;13.20;99.90
11965;DHT22;6042;41.326;19.826;2022-12-22T14:55:21;13.20;99.90
11965;DHT22;6042;41.326;19.826;2022-12-22T14:57:54;13.10;99.90
11965;DHT22;6042;41.326;19.826;2022-12-22T15:00:32;13.10;99.90
11965;DHT22;6042;41.326;19.826;2022-12-22T15:03:03;13.10;99.90
11965;DHT22;6042;41.326;19.826;2022-12-22T15:05:33;13.20;99.90
11965;DHT22;6042;41.326;19.826;2022-12-22T15:08:05;13.20;99.90
11965;DHT22;6042;41.326;19.826;2022-12-22T15:10:39;13.20;99.90
11965;DHT22;6042;41.326;19.826;2022-12-22T15:13:18;13.20;99.90
11965;DHT22;6042;41.326;19.826;2022-12-22T15:15:49;13.00;99.90
11965;DHT22;6042;41.326;19.826;2022-12-22T15:18:22;12.90;99.90
11965;DHT22;6042;41.326;19.826;2022-12-22T15:20:52;12.80;99.90
11965;DHT22;6042;41.326;19.826;2022-12-22T15:23:21;12.80;99.90
11965;DHT22;6042;41.326;19.826;2022-12-22T15:25:51;12.80;99.90
11965;DHT22;6042;41.326;19.826;2022-12-22T15:28:21;12.90;99.90
11965;DHT22;6042;41.326;19.826;2022-12-22T15:30:50;12.90;99.90
11965;DHT22;6042;41.326;19.826;2022-12-22T15:33:19;12.80;99.90
11965;DHT22;6042;41.326;19.826;2022-12-22T15:35:48;12.70;99.90
11965;DHT22;6042;41.326;19.826;2022-12-22T15:38:23;12.70;99.90
11965;DHT22;6042;41.326;19.826;2022-12-22T15:40:52;12.60;99.90
11965;DHT22;6042;41.326;19.826;2022-12-22T15:43:22;12.70;99.90
11965;DHT22;6042;41.326;19.826;2022-12-22T15:46:14;12.70;99.90
11965;DHT22;6042;41.326;19.826;2022-12-22T15:48:45;12.60;99.90
11965;DHT22;6042;41.326;19.826;2022-12-22T15:51:18;12.50;99.90
11965;DHT22;6042;41.326;19.826;2022-12-22T15:53:48;12.40;99.90
11965;DHT22;6042;41.326;19.826;2022-12-22T15:56:20;12.40;99.90
11965;DHT22;6042;41.326;19.826;2022-12-22T15:58:51;12.30;99.90
11965;DHT22;6042;41.326;19.826;2022-12-22T16:01:21;12.30;99.90
11965;DHT22;6042;41.326;19.826;2022-12-22T16:03:50;12.20;99.90
11965;DHT22;6042;41.326;19.826;2022-12-22T16:06:20;12.20;99.90
11965;DHT22;6042;41.326;19.826;2022-12-22T16:08:51;12.20;99.90
11965;DHT22;6042;41.326;19.826;2022-12-22T16:11:22;12.20;99.90
11965;DHT22;6042;41.326;19.826;2022-12-22T16:13:52;12.10;99.90
11965;DHT22;6042;41.326;19.826;2022-12-22T16:16:21;12.00;99.90
11965;DHT22;6042;41.326;19.826;2022-12-22T16:18:50;11.90;99.90
11965;DHT22;6042;41.326;19.826;2022-12-22T16:21:21;12.00;99.90
11965;DHT22;6042;41.326;19.826;2022-12-22T16:23:52;11.90;99.90
11965;DHT22;6042;41.326;19.826;2022-12-22T16:26:21;11.90;99.90
11965;DHT22;6042;41.326;19.826;2022-12-22T16:28:51;11.80;99.90
11965;DHT22;6042;41.326;19.826;2022-12-22T16:31:23;11.80;99.90
11965;DHT22;6042;41.326;19.826;2022-12-22T16:33:52;11.70;99.90
11965;DHT22;6042;41.326;19.826;2022-12-22T16:36:20;11.70;99.90
11965;DHT22;6042;41.326;19.826;2022-12-22T16:38:51;11.70;99.90
11965;DHT22;6042;41.326;19.826;2022-12-22T16:41:22;11.70;99.90
11965;DHT22;6042;41.326;19.826;2022-12-22T16:43:54;11.70;99.90
11965;DHT22;6042;41.326;19.826;2022-12-22T16:46:34;11.70;99.90
11965;DHT22;6042;41.326;19.826;2022-12-22T16:49:06;11.70;99.90